createdAt,value
2023-01-12T00:00:31.081Z,89.19
2023-01-12T00:01:30.923Z,89.19
2023-01-12T00:02:30.972Z,89.40
2023-01-12T00:03:30.890Z,89.61
2023-01-12T00:04:30.988Z,89.40
2023-01-12T00:05:30.867Z,89.40
2023-01-12T00:06:30.869Z,89.61
2023-01-12T00:07:30.846Z,89.40
2023-01-12T00:08:30.915Z,89.61
2023-01-12T00:09:30.825Z,89.29
2023-01-12T00:10:30.816Z,89.61
2023-01-12T00:11:30.818Z,89.50
2023-01-12T00:12:30.801Z,89.40
2023-01-12T00:13:30.799Z,89.71
2023-01-12T00:14:30.780Z,89.91
2023-01-12T00:15:30.761Z,89.09
2023-01-12T00:16:30.797Z,89.91
2023-01-12T00:17:30.742Z,89.29
2023-01-12T00:18:30.728Z,89.29
2023-01-12T00:19:30.716Z,89.29
2023-01-12T00:20:30.711Z,89.40
2023-01-12T00:21:30.711Z,89.29
2023-01-12T00:22:30.693Z,89.19
2023-01-12T00:23:30.673Z,89.29
2023-01-12T00:24:30.663Z,88.99
2023-01-12T00:25:30.653Z,89.40
2023-01-12T00:26:30.655Z,89.40
2023-01-12T00:27:30.635Z,89.71
2023-01-12T00:28:30.627Z,89.40
2023-01-12T00:29:30.625Z,89.81
2023-01-12T00:30:30.598Z,89.50
2023-01-12T00:31:30.662Z,89.34
2023-01-12T00:32:30.577Z,89.71
2023-01-12T00:33:30.568Z,89.44
2023-01-12T00:34:30.564Z,89.54
2023-01-12T00:35:30.544Z,89.29
2023-01-12T00:36:30.549Z,88.89
2023-01-12T00:37:30.523Z,89.40
2023-01-12T00:38:30.515Z,89.54
2023-01-12T00:39:30.499Z,89.40
2023-01-12T00:40:30.501Z,89.34
2023-01-12T00:41:30.489Z,89.19
2023-01-12T00:42:30.476Z,89.44
2023-01-12T00:43:30.464Z,89.44
2023-01-12T00:44:30.447Z,89.29
2023-01-12T00:45:30.503Z,89.23
2023-01-12T00:46:30.513Z,89.13
2023-01-12T00:47:30.416Z,88.92
2023-01-12T00:48:30.407Z,89.23
2023-01-12T00:49:30.392Z,89.79
2023-01-12T00:50:30.385Z,89.89
2023-01-12T00:51:30.382Z,89.69
2023-01-12T00:52:31.676Z,89.89
2023-01-12T00:53:30.348Z,90.00
2023-01-12T00:54:30.343Z,90.00
2023-01-12T00:55:30.335Z,90.31
2023-01-12T00:56:30.333Z,89.75
2023-01-12T00:57:30.326Z,90.20
2023-01-12T00:58:30.297Z,89.79
2023-01-12T00:59:30.284Z,89.89
2023-01-12T01:00:30.293Z,90.37
2023-01-12T01:01:30.442Z,89.79
2023-01-12T01:02:30.306Z,90.06
2023-01-12T01:03:30.241Z,90.06
2023-01-12T01:04:30.234Z,89.75
2023-01-12T01:05:30.234Z,89.85
2023-01-12T01:06:30.220Z,89.23
2023-01-12T01:07:30.198Z,89.44
2023-01-12T01:08:30.192Z,89.85
2023-01-12T01:09:30.177Z,89.34
2023-01-12T01:10:30.167Z,89.44
2023-01-12T01:11:30.167Z,89.44
2023-01-12T01:12:30.154Z,89.44
2023-01-12T01:13:30.131Z,89.34
2023-01-12T01:14:30.122Z,88.92
2023-01-12T01:15:30.224Z,89.13
2023-01-12T01:16:30.116Z,89.13
2023-01-12T01:17:30.112Z,89.03
2023-01-12T01:18:30.097Z,89.23
2023-01-12T01:19:30.070Z,89.13
2023-01-12T01:20:30.059Z,88.62
2023-01-12T01:21:30.069Z,89.44
2023-01-12T01:22:30.048Z,88.51
2023-01-12T01:23:30.028Z,89.44
2023-01-12T01:24:30.020Z,89.44
2023-01-12T01:25:30.007Z,89.34
2023-01-12T01:26:30.005Z,89.54
2023-01-12T01:27:29.982Z,89.44
2023-01-12T01:28:29.972Z,88.31
2023-01-12T01:29:29.960Z,88.82
2023-01-12T01:30:29.951Z,89.34
2023-01-12T01:31:29.992Z,89.23
2023-01-12T01:32:29.929Z,88.82
2023-01-12T01:33:29.945Z,89.44
2023-01-12T01:34:29.912Z,89.44
2023-01-12T01:35:29.895Z,88.82
2023-01-12T01:36:29.922Z,88.82
2023-01-12T01:37:29.883Z,88.82
2023-01-12T01:38:29.888Z,88.51
2023-01-12T01:39:29.865Z,88.20
2023-01-12T01:40:29.848Z,88.20
2023-01-12T01:41:29.843Z,88.51
2023-01-12T01:42:29.824Z,88.86
2023-01-12T01:43:29.810Z,88.62
2023-01-12T01:44:29.817Z,88.92
2023-01-12T01:45:29.794Z,88.62
2023-01-12T01:46:29.828Z,87.90
2023-01-12T01:47:29.777Z,89.28
2023-01-12T01:48:29.766Z,88.86
2023-01-12T01:49:29.765Z,88.14
2023-01-12T01:50:29.753Z,89.23
2023-01-12T01:51:29.736Z,88.31
2023-01-12T01:52:29.720Z,88.41
2023-01-12T01:53:29.703Z,88.62
2023-01-12T01:54:29.696Z,88.41
2023-01-12T01:55:29.682Z,88.31
2023-01-12T01:56:29.672Z,88.51
2023-01-12T01:57:29.675Z,87.59
2023-01-12T01:58:29.660Z,88.10
2023-01-12T01:59:29.639Z,87.48
2023-01-12T02:00:29.631Z,87.69
2023-01-12T02:01:29.745Z,87.99
2023-01-12T02:02:29.659Z,87.79
2023-01-12T02:03:32.063Z,87.38
2023-01-12T02:04:29.587Z,87.24
2023-01-12T02:05:29.603Z,88.10
2023-01-12T02:06:29.566Z,87.79
2023-01-12T02:07:29.561Z,87.65
2023-01-12T02:08:29.542Z,87.65
2023-01-12T02:09:29.531Z,87.75
2023-01-12T02:10:29.529Z,87.54
2023-01-12T02:11:29.510Z,86.97
2023-01-12T02:12:29.514Z,87.27
2023-01-12T02:13:29.503Z,87.69
2023-01-12T02:14:29.479Z,87.48
2023-01-12T02:15:29.471Z,87.59
2023-01-12T02:16:29.569Z,87.24
2023-01-12T02:17:29.463Z,87.44
2023-01-12T02:18:29.437Z,87.24
2023-01-12T02:19:29.451Z,87.34
2023-01-12T02:20:29.413Z,87.13
2023-01-12T02:21:29.445Z,87.34
2023-01-12T02:22:29.411Z,87.03
2023-01-12T02:23:29.382Z,86.93
2023-01-12T02:24:29.373Z,86.61
2023-01-12T02:25:29.364Z,86.52
2023-01-12T02:26:29.366Z,86.61
2023-01-12T02:27:29.389Z,86.52
2023-01-12T02:28:29.331Z,86.52
2023-01-12T02:29:29.312Z,86.41
2023-01-12T02:30:29.307Z,86.61
2023-01-12T02:31:29.453Z,86.52
2023-01-12T02:32:29.316Z,86.72
2023-01-12T02:33:29.274Z,86.99
2023-01-12T02:34:29.263Z,86.68
2023-01-12T02:35:29.263Z,86.79
2023-01-12T02:36:29.245Z,86.79
2023-01-12T02:37:29.264Z,86.41
2023-01-12T02:38:29.221Z,87.34
2023-01-12T02:39:29.231Z,87.65
2023-01-12T02:40:29.198Z,87.44
2023-01-12T02:41:29.190Z,87.54
2023-01-12T02:42:29.188Z,87.65
2023-01-12T02:43:29.164Z,87.44
2023-01-12T02:44:29.157Z,87.85
2023-01-12T02:45:29.143Z,87.96
2023-01-12T02:46:29.216Z,87.54
2023-01-12T02:47:29.138Z,87.60
2023-01-12T02:48:29.126Z,87.13
2023-01-12T02:49:29.117Z,86.68
2023-01-12T02:50:29.091Z,87.24
2023-01-12T02:51:29.101Z,87.40
2023-01-12T02:52:29.071Z,87.40
2023-01-12T02:53:29.100Z,87.51
2023-01-12T02:54:29.043Z,87.30
2023-01-12T02:55:29.048Z,87.19
2023-01-12T02:56:29.024Z,87.51
2023-01-12T02:57:29.023Z,87.51
2023-01-12T02:58:29.021Z,87.51
2023-01-12T02:59:29.003Z,87.51
2023-01-12T03:00:29.003Z,87.40
2023-01-12T03:01:28.994Z,87.92
2023-01-12T03:02:28.963Z,87.51
2023-01-12T03:03:28.967Z,87.51
2023-01-12T03:04:28.939Z,87.60
2023-01-12T03:05:28.929Z,87.30
2023-01-12T03:06:28.928Z,87.60
2023-01-12T03:07:28.912Z,87.51
2023-01-12T03:08:28.924Z,87.44
2023-01-12T03:09:28.982Z,87.60
2023-01-12T03:10:28.873Z,87.30
2023-01-12T03:11:28.874Z,87.30
2023-01-12T03:12:28.864Z,87.51
2023-01-12T03:13:28.865Z,86.99
2023-01-12T03:14:28.828Z,88.02
2023-01-12T03:15:28.835Z,87.51
2023-01-12T03:16:28.956Z,87.30
2023-01-12T03:17:28.803Z,87.60
2023-01-12T03:18:28.799Z,87.92
2023-01-12T03:19:28.800Z,87.81
2023-01-12T03:20:28.783Z,87.30
2023-01-12T03:21:28.764Z,87.71
2023-01-12T03:22:28.751Z,86.99
2023-01-12T03:23:28.745Z,86.79
2023-01-12T03:24:28.726Z,87.09
2023-01-12T03:25:28.733Z,87.19
2023-01-12T03:26:28.705Z,86.68
2023-01-12T03:27:28.704Z,86.88
2023-01-12T03:28:28.690Z,86.79
2023-01-12T03:29:28.674Z,86.68
2023-01-12T03:30:28.665Z,86.68
2023-01-12T03:31:28.680Z,86.58
2023-01-12T03:32:28.638Z,86.79
2023-01-12T03:33:28.642Z,86.47
2023-01-12T03:34:28.619Z,86.47
2023-01-12T03:35:28.603Z,86.68
2023-01-12T03:36:28.602Z,86.58
2023-01-12T03:37:28.584Z,86.58
2023-01-12T03:38:28.587Z,86.37
2023-01-12T03:39:28.600Z,86.58
2023-01-12T03:40:28.553Z,86.47
2023-01-12T03:41:28.566Z,85.75
2023-01-12T03:42:28.530Z,85.96
2023-01-12T03:43:28.537Z,86.33
2023-01-12T03:44:28.505Z,86.47
2023-01-12T03:45:28.500Z,86.02
2023-01-12T03:46:28.499Z,86.27
2023-01-12T03:47:28.477Z,86.54
2023-01-12T03:48:28.474Z,86.54
2023-01-12T03:49:28.453Z,85.96
2023-01-12T03:50:28.460Z,85.86
2023-01-12T03:51:28.433Z,85.75
2023-01-12T03:52:28.424Z,85.75
2023-01-12T03:53:28.432Z,85.82
2023-01-12T03:54:28.406Z,85.86
2023-01-12T03:55:28.394Z,85.71
2023-01-12T03:56:28.382Z,85.92
2023-01-12T03:57:28.389Z,85.55
2023-01-12T03:58:28.366Z,86.58
2023-01-12T03:59:28.347Z,85.71
2023-01-12T04:00:28.342Z,86.58
2023-01-12T04:01:28.493Z,86.37
2023-01-12T04:02:28.334Z,86.47
2023-01-12T04:03:28.367Z,85.75
2023-01-12T04:04:28.291Z,85.75
2023-01-12T04:05:28.284Z,85.96
2023-01-12T04:06:28.295Z,86.13
2023-01-12T04:07:28.265Z,86.47
2023-01-12T04:08:28.258Z,85.75
2023-01-12T04:09:28.239Z,85.86
2023-01-12T04:10:28.226Z,86.06
2023-01-12T04:11:28.220Z,85.86
2023-01-12T04:12:28.209Z,85.82
2023-01-12T04:13:28.359Z,85.65
2023-01-12T04:14:28.184Z,85.75
2023-01-12T04:15:28.175Z,85.71
2023-01-12T04:16:28.229Z,85.55
2023-01-12T04:17:28.182Z,85.82
2023-01-12T04:18:28.153Z,85.82
2023-01-12T04:19:28.135Z,86.16
2023-01-12T04:20:28.118Z,86.06
2023-01-12T04:21:28.108Z,85.92
2023-01-12T04:22:28.095Z,85.92
2023-01-12T04:23:28.097Z,86.58
2023-01-12T04:24:28.072Z,85.92
2023-01-12T04:25:28.065Z,86.02
2023-01-12T04:26:28.077Z,85.86
2023-01-12T04:27:28.043Z,85.96
2023-01-12T04:28:28.050Z,85.96
2023-01-12T04:29:28.058Z,86.02
2023-01-12T04:30:28.024Z,85.61
2023-01-12T04:31:28.050Z,85.71
2023-01-12T04:32:28.002Z,85.51
2023-01-12T04:33:27.989Z,85.51
2023-01-12T04:34:27.994Z,85.24
2023-01-12T04:35:27.958Z,85.51
2023-01-12T04:36:27.956Z,85.61
2023-01-12T04:37:27.938Z,85.24
2023-01-12T04:38:27.937Z,85.20
2023-01-12T04:39:27.917Z,84.89
2023-01-12T04:40:27.907Z,84.99
2023-01-12T04:41:27.892Z,85.10
2023-01-12T04:42:27.884Z,84.99
2023-01-12T04:43:27.880Z,84.99
2023-01-12T04:44:27.864Z,84.89
2023-01-12T04:45:27.957Z,85.10
2023-01-12T04:46:27.835Z,84.89
2023-01-12T04:47:27.826Z,84.38
2023-01-12T04:48:27.824Z,84.54
2023-01-12T04:49:27.849Z,84.23
2023-01-12T04:50:27.794Z,84.54
2023-01-12T04:51:27.781Z,84.27
2023-01-12T04:52:27.778Z,83.97
2023-01-12T04:53:27.809Z,83.41
2023-01-12T04:54:27.766Z,83.31
2023-01-12T04:55:27.747Z,83.83
2023-01-12T04:56:27.750Z,84.03
2023-01-12T04:57:27.720Z,84.23
2023-01-12T04:58:27.724Z,83.83
2023-01-12T04:59:27.719Z,83.41
2023-01-12T05:00:27.704Z,83.41
2023-01-12T05:01:27.810Z,83.62
2023-01-12T05:02:27.681Z,83.11
2023-01-12T05:03:27.661Z,83.62
2023-01-12T05:04:27.674Z,83.51
2023-01-12T05:05:27.634Z,83.62
2023-01-12T05:06:27.624Z,83.72
2023-01-12T05:07:27.606Z,83.11
2023-01-12T05:08:27.620Z,83.11
2023-01-12T05:09:27.587Z,83.20
2023-01-12T05:10:27.580Z,83.31
2023-01-12T05:11:27.566Z,82.90
2023-01-12T05:12:27.554Z,82.59
2023-01-12T05:13:27.555Z,82.86
2023-01-12T05:14:27.529Z,82.55
2023-01-12T05:15:27.541Z,82.65
2023-01-12T05:16:27.576Z,82.24
2023-01-12T05:17:27.517Z,82.55
2023-01-12T05:18:27.503Z,82.34
2023-01-12T05:19:27.479Z,82.45
2023-01-12T05:20:27.461Z,82.24
2023-01-12T05:21:27.457Z,82.14
2023-01-12T05:22:27.438Z,82.45
2023-01-12T05:23:27.447Z,82.55
2023-01-12T05:24:27.417Z,82.14
2023-01-12T05:25:27.405Z,82.14
2023-01-12T05:26:27.393Z,82.45
2023-01-12T05:27:27.389Z,82.14
2023-01-12T05:28:27.381Z,81.93
2023-01-12T05:29:27.362Z,82.41
2023-01-12T05:30:27.902Z,82.14
2023-01-12T05:31:27.341Z,81.59
2023-01-12T05:32:27.328Z,82.00
2023-01-12T05:33:27.350Z,82.34
2023-01-12T05:34:27.307Z,82.24
2023-01-12T05:35:27.322Z,81.69
2023-01-12T05:36:27.292Z,82.04
2023-01-12T05:37:27.276Z,82.00
2023-01-12T05:38:27.278Z,82.14
2023-01-12T05:39:27.254Z,81.83
2023-01-12T05:40:27.270Z,81.83
2023-01-12T05:41:27.232Z,81.62
2023-01-12T05:42:27.220Z,81.62
2023-01-12T05:43:27.228Z,82.04
2023-01-12T05:44:27.198Z,81.83
2023-01-12T05:45:27.191Z,82.31
2023-01-12T05:46:27.332Z,81.83
2023-01-12T05:47:27.193Z,82.14
2023-01-12T05:48:27.168Z,81.73
2023-01-12T05:49:27.167Z,81.59
2023-01-12T05:50:27.129Z,81.83
2023-01-12T05:51:27.121Z,82.00
2023-01-12T05:52:27.110Z,81.69
2023-01-12T05:53:27.107Z,81.79
2023-01-12T05:54:27.086Z,81.79
2023-01-12T05:55:27.087Z,81.83
2023-01-12T05:56:27.100Z,81.79
2023-01-12T05:57:27.056Z,81.59
2023-01-12T05:58:27.061Z,81.73
2023-01-12T05:59:27.033Z,81.59
2023-01-12T06:00:27.036Z,82.00
2023-01-12T06:01:27.098Z,81.90
2023-01-12T06:02:27.040Z,82.20
2023-01-12T06:03:28.003Z,81.69
2023-01-12T06:04:27.074Z,81.79
2023-01-12T06:05:26.982Z,82.20
2023-01-12T06:06:26.963Z,81.69
2023-01-12T06:07:26.946Z,81.79
2023-01-12T06:08:26.935Z,81.83
2023-01-12T06:09:26.933Z,81.90
2023-01-12T06:10:26.911Z,81.59
2023-01-12T06:11:26.913Z,82.00
2023-01-12T06:12:26.907Z,81.69
2023-01-12T06:13:26.878Z,81.59
2023-01-12T06:14:26.881Z,81.48
2023-01-12T06:15:26.863Z,81.79
2023-01-12T06:16:26.881Z,81.79
2023-01-12T06:17:26.844Z,81.79
2023-01-12T06:18:26.827Z,81.90
2023-01-12T06:19:26.826Z,82.10
2023-01-12T06:20:26.804Z,82.31
2023-01-12T06:21:26.824Z,82.00
2023-01-12T06:22:26.780Z,81.79
2023-01-12T06:23:35.544Z,82.00
2023-01-12T06:24:27.769Z,81.69
2023-01-12T06:25:26.767Z,81.59
2023-01-12T06:26:26.738Z,82.20
2023-01-12T06:27:26.753Z,82.10
2023-01-12T06:28:26.715Z,81.79
2023-01-12T06:29:26.714Z,81.69
2023-01-12T06:30:26.705Z,81.90
2023-01-12T06:31:26.722Z,82.00
2023-01-12T06:32:26.667Z,81.69
2023-01-12T06:33:26.675Z,81.69
2023-01-12T06:34:26.655Z,81.69
2023-01-12T06:35:26.646Z,81.90
2023-01-12T06:36:26.638Z,81.79
2023-01-12T06:37:26.636Z,81.90
2023-01-12T06:38:26.607Z,82.20
2023-01-12T06:39:26.608Z,81.90
2023-01-12T06:40:26.592Z,82.31
2023-01-12T06:41:26.577Z,82.00
2023-01-12T06:42:26.564Z,81.79
2023-01-12T06:43:26.557Z,82.00
2023-01-12T06:44:26.566Z,82.20
2023-01-12T06:45:26.546Z,81.90
2023-01-12T06:46:26.567Z,82.00
2023-01-12T06:47:26.509Z,82.31
2023-01-12T06:48:26.497Z,82.31
2023-01-12T06:49:27.496Z,82.10
2023-01-12T06:50:26.474Z,82.20
2023-01-12T06:51:26.461Z,82.20
2023-01-12T06:52:26.449Z,82.10
2023-01-12T06:53:26.461Z,82.10
2023-01-12T06:54:26.435Z,82.34
2023-01-12T06:55:26.418Z,82.41
2023-01-12T06:56:26.407Z,81.90
2023-01-12T06:57:26.401Z,82.10
2023-01-12T06:58:26.381Z,82.51
2023-01-12T06:59:26.385Z,82.41
2023-01-12T07:00:26.364Z,82.55
2023-01-12T07:01:26.511Z,82.41
2023-01-12T07:02:26.346Z,82.65
2023-01-12T07:03:26.338Z,82.62
2023-01-12T07:04:26.416Z,82.51
2023-01-12T07:05:26.317Z,82.51
2023-01-12T07:06:26.298Z,82.71
2023-01-12T07:07:26.296Z,82.41
2023-01-12T07:08:26.275Z,82.41
2023-01-12T07:09:26.646Z,81.69
2023-01-12T07:10:26.253Z,82.31
2023-01-12T07:11:26.271Z,82.10
2023-01-12T07:12:26.239Z,82.41
2023-01-12T07:13:26.218Z,82.41
2023-01-12T07:14:26.247Z,82.51
2023-01-12T07:15:26.198Z,82.82
2023-01-12T07:16:26.187Z,82.71
2023-01-12T07:17:26.179Z,82.51
2023-01-12T07:18:26.169Z,82.71
2023-01-12T07:19:26.162Z,82.62
2023-01-12T07:20:26.173Z,82.62
2023-01-12T07:21:26.140Z,82.62
2023-01-12T07:22:26.158Z,82.62
2023-01-12T07:23:26.115Z,82.62
2023-01-12T07:24:26.113Z,82.51
2023-01-12T07:25:26.117Z,82.10
2023-01-12T07:26:26.115Z,82.41
2023-01-12T07:27:26.068Z,82.41
2023-01-12T07:28:26.063Z,81.96
2023-01-12T07:29:26.081Z,82.10
2023-01-12T07:30:26.031Z,82.27
2023-01-12T07:31:26.107Z,82.27
2023-01-12T07:32:26.023Z,82.27
2023-01-12T07:33:26.006Z,82.47
2023-01-12T07:34:26.012Z,82.37
2023-01-12T07:35:25.984Z,82.17
2023-01-12T07:36:26.005Z,82.06
2023-01-12T07:37:25.956Z,81.96
2023-01-12T07:38:25.951Z,82.06
2023-01-12T07:39:25.943Z,81.76
2023-01-12T07:40:25.928Z,82.06
2023-01-12T07:41:25.927Z,81.86
2023-01-12T07:42:25.902Z,82.37
2023-01-12T07:43:25.900Z,81.96
2023-01-12T07:44:25.909Z,82.27
2023-01-12T07:45:25.888Z,82.27
2023-01-12T07:46:25.921Z,82.17
2023-01-12T07:47:25.848Z,82.27
2023-01-12T07:48:25.838Z,82.37
2023-01-12T07:49:25.831Z,82.17
2023-01-12T07:50:25.820Z,82.27
2023-01-12T07:51:25.832Z,82.37
2023-01-12T07:52:25.812Z,82.37
2023-01-12T07:53:25.780Z,82.17
2023-01-12T07:54:25.787Z,82.17
2023-01-12T07:55:25.799Z,82.37
2023-01-12T07:56:25.745Z,82.17
2023-01-12T07:57:25.822Z,82.06
2023-01-12T07:58:25.727Z,82.06
2023-01-12T07:59:25.726Z,82.06
2023-01-12T08:00:25.706Z,82.06
2023-01-12T08:01:25.952Z,82.47
2023-01-12T08:02:25.739Z,81.86
2023-01-12T08:03:25.682Z,82.33
2023-01-12T08:04:25.671Z,82.03
2023-01-12T08:05:25.734Z,82.23
2023-01-12T08:06:25.639Z,82.13
2023-01-12T08:07:25.626Z,81.71
2023-01-12T08:08:25.616Z,81.71
2023-01-12T08:09:25.626Z,82.03
2023-01-12T08:10:25.596Z,81.82
2023-01-12T08:11:25.587Z,81.71
2023-01-12T08:12:25.584Z,81.51
2023-01-12T08:13:25.597Z,81.51
2023-01-12T08:14:25.568Z,81.62
2023-01-12T08:15:25.542Z,81.62
2023-01-12T08:16:25.574Z,82.33
2023-01-12T08:17:25.518Z,81.51
2023-01-12T08:18:25.546Z,81.30
2023-01-12T08:19:25.507Z,81.20
2023-01-12T08:20:25.494Z,81.10
2023-01-12T08:21:25.485Z,81.82
2023-01-12T08:22:25.466Z,81.62
2023-01-12T08:23:25.458Z,81.71
2023-01-12T08:24:25.457Z,81.51
2023-01-12T08:25:25.437Z,81.51
2023-01-12T08:26:25.428Z,81.10
2023-01-12T08:27:25.408Z,81.10
2023-01-12T08:28:25.412Z,81.20
2023-01-12T08:29:25.415Z,81.10
2023-01-12T08:30:25.379Z,81.10
2023-01-12T08:31:25.440Z,81.30
2023-01-12T08:32:25.357Z,81.41
2023-01-12T08:33:25.350Z,81.30
2023-01-12T08:34:25.345Z,81.71
2023-01-12T08:35:25.331Z,81.16
2023-01-12T08:36:25.320Z,80.76
2023-01-12T08:37:25.339Z,81.27
2023-01-12T08:38:25.292Z,80.96
2023-01-12T08:39:25.305Z,81.16
2023-01-12T08:40:25.281Z,81.06
2023-01-12T08:41:25.258Z,80.65
2023-01-12T08:42:26.498Z,80.76
2023-01-12T08:43:25.267Z,80.55
2023-01-12T08:44:25.268Z,80.86
2023-01-12T08:45:25.368Z,80.86
2023-01-12T08:46:25.306Z,80.65
2023-01-12T08:47:25.193Z,80.76
2023-01-12T08:48:25.202Z,80.45
2023-01-12T08:49:25.201Z,80.55
2023-01-12T08:50:25.214Z,80.55
2023-01-12T08:51:25.150Z,80.35
2023-01-12T08:52:25.140Z,80.76
2023-01-12T08:53:25.131Z,80.41
2023-01-12T08:54:25.131Z,80.41
2023-01-12T08:55:25.108Z,80.82
2023-01-12T08:56:25.099Z,80.65
2023-01-12T08:57:25.083Z,80.72
2023-01-12T08:58:25.077Z,80.72
2023-01-12T08:59:25.075Z,79.90
2023-01-12T09:00:25.052Z,79.49
2023-01-12T09:01:25.137Z,79.49
2023-01-12T09:02:25.089Z,79.49
2023-01-12T09:03:25.026Z,79.59
2023-01-12T09:04:25.042Z,79.59
2023-01-12T09:05:25.000Z,79.59
2023-01-12T09:06:25.013Z,79.49
2023-01-12T09:07:24.981Z,79.59
2023-01-12T09:08:24.971Z,79.38
2023-01-12T09:09:24.966Z,79.59
2023-01-12T09:10:24.951Z,79.38
2023-01-12T09:11:24.933Z,79.49
2023-01-12T09:12:24.924Z,79.49
2023-01-12T09:13:24.914Z,79.38
2023-01-12T09:14:24.936Z,79.08
2023-01-12T09:15:24.897Z,79.24
2023-01-12T09:16:24.925Z,78.94
2023-01-12T09:17:24.891Z,79.28
2023-01-12T09:18:24.865Z,79.35
2023-01-12T09:19:24.850Z,79.35
2023-01-12T09:20:24.845Z,79.24
2023-01-12T09:21:24.826Z,79.35
2023-01-12T09:22:24.813Z,79.04
2023-01-12T09:23:24.810Z,79.04
2023-01-12T09:24:24.792Z,79.24
2023-01-12T09:25:24.792Z,79.66
2023-01-12T09:26:24.771Z,79.14
2023-01-12T09:27:24.759Z,79.14
2023-01-12T09:28:24.749Z,79.14
2023-01-12T09:29:24.738Z,79.14
2023-01-12T09:30:24.746Z,79.04
2023-01-12T09:31:24.767Z,78.87
2023-01-12T09:32:29.129Z,79.35
2023-01-12T09:33:25.712Z,78.94
2023-01-12T09:34:24.733Z,79.35
2023-01-12T09:35:24.687Z,79.24
2023-01-12T09:36:24.666Z,78.53
2023-01-12T09:37:24.649Z,78.53
2023-01-12T09:38:24.643Z,78.63
2023-01-12T09:39:28.596Z,79.24
2023-01-12T09:40:24.664Z,78.59
2023-01-12T09:41:27.142Z,78.19
2023-01-12T09:42:24.598Z,78.35
2023-01-12T09:43:24.585Z,77.33
2023-01-12T09:44:24.579Z,77.12
2023-01-12T09:45:24.575Z,77.43
2023-01-12T09:46:24.553Z,77.02
2023-01-12T09:47:24.558Z,77.53
2023-01-12T09:48:24.532Z,77.33
2023-01-12T09:49:24.556Z,77.23
2023-01-12T09:50:24.521Z,77.23
2023-01-12T09:51:24.497Z,77.33
2023-01-12T09:52:24.496Z,77.33
2023-01-12T09:53:24.480Z,76.72
2023-01-12T09:54:24.481Z,76.81
2023-01-12T09:55:24.469Z,77.43
2023-01-12T09:56:24.450Z,77.33
2023-01-12T09:57:28.991Z,77.43
2023-01-12T09:58:24.428Z,77.23
2023-01-12T09:59:24.409Z,77.23
2023-01-12T10:00:24.409Z,77.39
2023-01-12T10:01:29.744Z,77.43
2023-01-12T10:02:25.449Z,77.12
2023-01-12T10:03:24.466Z,76.88
2023-01-12T10:04:24.354Z,76.57
2023-01-12T10:05:31.475Z,76.78
2023-01-12T10:06:25.343Z,76.88
2023-01-12T10:07:24.324Z,76.98
2023-01-12T10:08:24.316Z,77.19
2023-01-12T10:09:24.303Z,77.09
2023-01-12T10:10:24.300Z,76.88
2023-01-12T10:11:24.282Z,76.88
2023-01-12T10:12:24.270Z,76.27
2023-01-12T10:13:24.254Z,76.27
2023-01-12T10:14:24.244Z,76.57
2023-01-12T10:15:24.244Z,76.47
2023-01-12T10:16:24.266Z,76.23
2023-01-12T10:17:24.213Z,76.03
2023-01-12T10:18:24.200Z,75.82
2023-01-12T10:19:24.190Z,75.72
2023-01-12T10:20:24.227Z,75.72
2023-01-12T10:21:24.196Z,75.93
2023-01-12T10:22:24.156Z,75.82
2023-01-12T10:23:24.146Z,75.52
2023-01-12T10:24:24.142Z,75.62
2023-01-12T10:25:24.188Z,75.52
2023-01-12T10:26:24.111Z,75.52
2023-01-12T10:27:24.099Z,75.31
2023-01-12T10:28:24.102Z,75.82
2023-01-12T10:29:24.078Z,75.82
2023-01-12T10:30:24.096Z,75.62
2023-01-12T10:31:24.114Z,75.82
2023-01-12T10:32:24.688Z,75.72
2023-01-12T10:33:24.044Z,75.72
2023-01-12T10:34:24.034Z,75.93
2023-01-12T10:35:24.025Z,75.52
2023-01-12T10:36:24.004Z,75.42
2023-01-12T10:37:24.048Z,75.21
2023-01-12T10:38:23.979Z,75.42
2023-01-12T10:39:23.967Z,75.72
2023-01-12T10:40:23.987Z,75.82
2023-01-12T10:41:23.946Z,75.93
2023-01-12T10:42:23.937Z,75.93
2023-01-12T10:43:24.042Z,75.82
2023-01-12T10:44:23.916Z,75.52
2023-01-12T10:45:23.920Z,75.62
2023-01-12T10:46:23.893Z,75.93
2023-01-12T10:47:23.879Z,75.93
2023-01-12T10:48:23.871Z,75.93
2023-01-12T10:49:23.856Z,75.82
2023-01-12T10:50:23.862Z,75.93
2023-01-12T10:51:23.835Z,76.23
2023-01-12T10:52:23.825Z,76.95
2023-01-12T10:53:23.831Z,77.05
2023-01-12T10:54:23.807Z,76.75
2023-01-12T10:55:23.802Z,77.05
2023-01-12T10:56:23.790Z,77.15
2023-01-12T10:57:23.784Z,77.05
2023-01-12T10:58:23.760Z,77.05
2023-01-12T10:59:23.749Z,77.05
2023-01-12T11:00:26.038Z,77.15
2023-01-12T11:01:23.872Z,77.26
2023-01-12T11:02:23.819Z,77.36
2023-01-12T11:03:23.701Z,77.26
2023-01-12T11:04:23.702Z,77.36
2023-01-12T11:05:23.695Z,76.75
2023-01-12T11:06:23.697Z,78.08
2023-01-12T11:07:23.659Z,77.46
2023-01-12T11:08:23.651Z,78.08
2023-01-12T11:09:23.661Z,78.79
2023-01-12T11:10:23.636Z,78.89
2023-01-12T11:11:23.621Z,79.41
2023-01-12T11:12:23.672Z,79.41
2023-01-12T11:13:23.592Z,79.34
2023-01-12T11:14:24.396Z,80.63
2023-01-12T11:15:23.593Z,80.26
2023-01-12T11:16:23.763Z,80.46
2023-01-12T11:17:23.552Z,80.57
2023-01-12T11:18:23.565Z,80.67
2023-01-12T11:19:23.529Z,80.88
2023-01-12T11:20:23.540Z,80.98
2023-01-12T11:21:23.506Z,80.88
2023-01-12T11:22:23.497Z,81.18
2023-01-12T11:23:23.485Z,81.52
2023-01-12T11:24:23.500Z,81.32
2023-01-12T11:25:23.489Z,81.38
2023-01-12T11:26:23.457Z,81.43
2023-01-12T11:27:23.439Z,81.52
2023-01-12T11:28:23.446Z,82.04
2023-01-12T11:29:23.465Z,82.10
2023-01-12T11:30:23.435Z,81.32
2023-01-12T11:31:23.433Z,81.79
2023-01-12T11:32:23.387Z,82.14
2023-01-12T11:33:23.377Z,81.94
2023-01-12T11:34:23.380Z,81.73
2023-01-12T11:35:23.371Z,82.35
2023-01-12T11:36:23.338Z,82.35
2023-01-12T11:37:23.338Z,82.24
2023-01-12T11:38:23.325Z,82.24
2023-01-12T11:39:23.319Z,82.55
2023-01-12T11:40:23.345Z,82.76
2023-01-12T11:41:23.307Z,82.45
2023-01-12T11:42:23.278Z,82.59
2023-01-12T11:43:23.261Z,82.49
2023-01-12T11:44:23.255Z,83.37
2023-01-12T11:45:23.287Z,83.51
2023-01-12T11:46:23.311Z,83.10
2023-01-12T11:47:23.220Z,83.51
2023-01-12T11:48:23.207Z,84.29
2023-01-12T11:49:23.199Z,83.98
2023-01-12T11:50:23.197Z,84.23
2023-01-12T11:51:23.300Z,84.09
2023-01-12T11:52:23.165Z,84.33
2023-01-12T11:53:23.163Z,84.09
2023-01-12T11:54:23.145Z,83.06
2023-01-12T11:55:23.143Z,83.47
2023-01-12T11:56:23.121Z,83.47
2023-01-12T11:57:23.130Z,83.68
2023-01-12T11:58:23.105Z,83.17
2023-01-12T11:59:23.092Z,83.17
2023-01-12T12:00:23.088Z,83.27
2023-01-12T12:01:23.132Z,83.37
2023-01-12T12:02:23.074Z,83.17
2023-01-12T12:03:23.091Z,83.17
2023-01-12T12:04:23.035Z,83.17
2023-01-12T12:05:23.046Z,82.24
2023-01-12T12:06:23.008Z,82.45
2023-01-12T12:07:23.001Z,82.35
2023-01-12T12:08:22.989Z,81.52
2023-01-12T12:09:22.977Z,82.04
2023-01-12T12:10:22.977Z,82.45
2023-01-12T12:11:22.975Z,82.04
2023-01-12T12:12:22.947Z,81.79
2023-01-12T12:13:22.957Z,81.70
2023-01-12T12:14:22.920Z,81.32
2023-01-12T12:15:22.917Z,81.52
2023-01-12T12:16:22.913Z,81.52
2023-01-12T12:17:22.888Z,81.29
2023-01-12T12:18:22.884Z,81.29
2023-01-12T12:19:22.869Z,80.98
2023-01-12T12:20:22.868Z,80.57
2023-01-12T12:21:22.845Z,80.46
2023-01-12T12:22:22.831Z,80.67
2023-01-12T12:23:22.852Z,80.77
2023-01-12T12:24:22.815Z,80.57
2023-01-12T12:25:22.815Z,80.46
2023-01-12T12:26:22.792Z,80.46
2023-01-12T12:27:22.780Z,80.57
2023-01-12T12:28:22.770Z,79.85
2023-01-12T12:29:22.812Z,80.46
2023-01-12T12:30:22.760Z,79.54
2023-01-12T12:31:22.808Z,80.36
2023-01-12T12:32:22.731Z,79.54
2023-01-12T12:33:22.715Z,79.41
2023-01-12T12:34:22.701Z,79.54
2023-01-12T12:35:22.708Z,79.30
2023-01-12T12:36:22.678Z,79.61
2023-01-12T12:37:22.681Z,79.30
2023-01-12T12:38:22.656Z,79.41
2023-01-12T12:39:22.646Z,79.20
2023-01-12T12:40:22.640Z,79.00
2023-01-12T12:41:22.624Z,79.30
2023-01-12T12:42:22.620Z,79.10
2023-01-12T12:43:22.617Z,79.20
2023-01-12T12:44:22.593Z,79.10
2023-01-12T12:45:22.615Z,78.89
2023-01-12T12:46:22.598Z,79.00
2023-01-12T12:47:22.567Z,78.89
2023-01-12T12:48:22.574Z,78.79
2023-01-12T12:49:22.553Z,79.10
2023-01-12T12:50:22.551Z,78.89
2023-01-12T12:51:22.525Z,78.89
2023-01-12T12:52:22.503Z,79.10